KETB

Details ICAO KETB
Name West Bend Muni
Region United States
Timezone America/Chicago (UTC-6.0)
Plans Departing 4
Arriving 4
Stats Elevation 887 ft / 270 m (AMSL)
Location 43.422213° -88.127928°
Runways 2
Magnetic Variation 3.789° W
Sunrise 2017-12-16 13:20:34 UTC / 2017-12-16 07:20:34 Local
Sunset 2017-12-16 22:18:43 UTC / 2017-12-16 16:18:43 Local
Advertisement - Login to hide

Runways

ID Width Length Bearing (true) Bearing (mag) Surface Threshold Offset Overrun Length
06 75 ft / 23 m 3,891 ft / 1,186 m 58.84° 62.63° Asphalt 0 ft / 0 m 0 ft / 0 m
13 75 ft / 23 m 4,489 ft / 1,368 m 126.52° 130.31° Asphalt 0 ft / 0 m 0 ft / 0 m
24 75 ft / 23 m 3,891 ft / 1,186 m 238.85° 242.64° Asphalt 0 ft / 0 m 0 ft / 0 m
31 75 ft / 23 m 4,489 ft / 1,368 m 306.53° 310.32° Asphalt 0 ft / 0 m 0 ft / 0 m

Approach Navaids

Runway Type Ident Frequency Range Bearing (true) Bearing (mag) Slope Elevation
31 Localiser IETB 108.90 MHz 18 nm / 33 km 306.53° 310.32° - 879 ft / 268 m (AMSL)

Map

Weather


0- 5 10 15 20 25 30 35+ Temperature / ° C

Clouds and Precipitation
Forecast for 2017-12-16 12:00 UTC. Updated 14 minutes ago

Ground ~20,000 ft ~40,000 ft Winds

METAR

KETB 161115Z AUTO 05004KT 10SM OVC005 M04/M04 A2982 RMK AO2

TAF

Not found

Frequencies

Recorded 120.00 MHz AWOS 3
Clearance 124.75 MHz CLNC DEL
Unicom 122.80 MHz CTAF/UNICOM
Approach 125.35 MHz MILWAUKEE APP/DEP
Warning: Do not use this data for real-world aviation or navigation. No guarantee of current accuracy is given.